createdAt,value
2022-08-28T00:01:35.180Z,100632.16
2022-08-28T00:04:01.893Z,100628.31
2022-08-28T00:06:28.616Z,100638.56
2022-08-28T00:08:55.512Z,100633.91
2022-08-28T00:11:23.199Z,100630.16
2022-08-28T00:13:49.882Z,100637.25
2022-08-28T00:16:18.728Z,100632.56
2022-08-28T00:18:45.559Z,100639.31
2022-08-28T00:21:14.524Z,100637.38
2022-08-28T00:23:43.337Z,100636.56
2022-08-28T00:26:10.859Z,100634.97
2022-08-28T00:28:37.376Z,100636.09
2022-08-28T00:31:05.160Z,100634.84
2022-08-28T00:33:33.747Z,100634.03
2022-08-28T00:36:01.202Z,100629.56
2022-08-28T00:38:28.655Z,100640.69
2022-08-28T00:40:58.307Z,100636.03
2022-08-28T00:43:46.038Z,100642.94
2022-08-28T00:46:16.054Z,100638.94
2022-08-28T00:48:42.773Z,100629.16
2022-08-28T00:51:28.464Z,100630.63
2022-08-28T00:53:58.611Z,100631.16
2022-08-28T00:56:25.883Z,100637.72
2022-08-28T00:58:53.295Z,100639.97
2022-08-28T01:01:20.009Z,100646.09
2022-08-28T01:03:46.751Z,100639.97
2022-08-28T01:06:14.825Z,100633.56
2022-08-28T01:08:43.060Z,100638.09
2022-08-28T01:11:10.945Z,100631.72
2022-08-28T01:13:39.639Z,100639.22
2022-08-28T01:16:07.481Z,100639.56
2022-08-28T01:18:34.874Z,100638.09
2022-08-28T01:21:11.729Z,100637.44
2022-08-28T01:24:09.094Z,100641.28
2022-08-28T01:26:37.916Z,100637.44
2022-08-28T01:29:04.907Z,100640.66
2022-08-28T01:31:31.747Z,100644.63
2022-08-28T01:34:01.319Z,100641.13
2022-08-28T01:36:29.193Z,100644.03
2022-08-28T01:39:08.028Z,100644.06
2022-08-28T01:41:35.464Z,100646.69
2022-08-28T01:44:02.095Z,100642.31
2022-08-28T01:46:30.332Z,100651.94
2022-08-28T01:48:57.020Z,100649.00
2022-08-28T01:51:24.723Z,100639.56
2022-08-28T01:53:52.039Z,100640.06
2022-08-28T01:56:19.091Z,100647.00
2022-08-28T01:58:48.101Z,100648.47
2022-08-28T02:01:16.599Z,100645.06
2022-08-28T02:03:43.340Z,100648.44
2022-08-28T02:06:10.812Z,100647.66
2022-08-28T02:08:37.360Z,100647.03
2022-08-28T02:11:06.338Z,100654.13
2022-08-28T02:13:33.873Z,100659.09
2022-08-28T02:16:00.831Z,100655.75
2022-08-28T02:18:27.712Z,100654.00
2022-08-28T02:20:54.199Z,100656.22
2022-08-28T02:23:20.703Z,100653.66
2022-08-28T02:25:47.240Z,100654.44
2022-08-28T02:28:16.304Z,100653.66
2022-08-28T02:30:43.581Z,100651.09
2022-08-28T02:33:10.086Z,100650.94
2022-08-28T02:35:36.620Z,100649.84
2022-08-28T02:38:03.807Z,100659.63
2022-08-28T02:40:30.399Z,100648.91
2022-08-28T02:42:57.364Z,100660.13
2022-08-28T02:45:23.891Z,100660.78
2022-08-28T02:47:52.049Z,100649.22
2022-08-28T02:50:19.671Z,100654.19
2022-08-28T02:52:46.514Z,100646.19
2022-08-28T02:55:14.103Z,100654.22
2022-08-28T02:57:41.334Z,100643.31
2022-08-28T03:00:10.412Z,100649.09
2022-08-28T03:02:36.926Z,100648.44
2022-08-28T03:05:03.737Z,100644.59
2022-08-28T03:07:30.339Z,100640.91
2022-08-28T03:09:56.999Z,100643.28
2022-08-28T03:12:26.376Z,100643.16
2022-08-28T03:14:54.078Z,100642.66
2022-08-28T03:17:21.544Z,100646.50
2022-08-28T03:19:49.994Z,100641.25
2022-08-28T03:22:17.316Z,100641.25
2022-08-28T03:24:44.899Z,100641.72
2022-08-28T03:27:13.198Z,100644.59
2022-08-28T03:29:39.777Z,100648.94
2022-08-28T03:32:06.420Z,100644.59
2022-08-28T03:34:33.685Z,100644.13
2022-08-28T03:37:01.231Z,100655.97
2022-08-28T03:39:27.861Z,100651.47
2022-08-28T03:41:54.465Z,100650.38
2022-08-28T03:44:21.388Z,100645.41
2022-08-28T03:46:47.851Z,100645.72
2022-08-28T03:49:14.322Z,100645.59
2022-08-28T03:51:41.194Z,100652.19
2022-08-28T03:54:07.660Z,100647.34
2022-08-28T03:56:34.147Z,100650.06
2022-08-28T03:59:01.461Z,100655.34
2022-08-28T04:01:28.152Z,100652.13
2022-08-28T04:03:55.943Z,100660.78
2022-08-28T04:06:22.992Z,100662.41
2022-08-28T04:08:50.908Z,100661.28
2022-08-28T04:11:18.257Z,100662.53
2022-08-28T04:13:45.015Z,100661.75
2022-08-28T04:16:12.902Z,100668.47
2022-08-28T04:18:40.734Z,100663.34
2022-08-28T04:21:11.768Z,100667.22
2022-08-28T04:23:39.173Z,100660.16
2022-08-28T04:26:06.692Z,100670.25
2022-08-28T04:28:33.413Z,100669.28
2022-08-28T04:30:59.951Z,100669.13
2022-08-28T04:33:28.283Z,100667.03
2022-08-28T04:35:55.340Z,100673.63
2022-08-28T04:38:22.239Z,100672.00
2022-08-28T04:40:48.744Z,100676.78
2022-08-28T04:43:15.308Z,100675.88
2022-08-28T04:45:43.360Z,100676.84
2022-08-28T04:48:13.167Z,100681.94
2022-08-28T04:50:43.607Z,100678.72
2022-08-28T04:53:10.411Z,100688.22
2022-08-28T04:55:45.100Z,100689.31
2022-08-28T04:58:23.835Z,100686.75
2022-08-28T05:00:51.747Z,100686.09
2022-08-28T05:03:18.356Z,100681.63
2022-08-28T05:05:46.339Z,100686.94
2022-08-28T05:08:13.997Z,100692.03
2022-08-28T05:10:41.614Z,100689.63
2022-08-28T05:13:09.004Z,100696.84
2022-08-28T05:15:40.143Z,100699.25
2022-08-28T05:18:06.656Z,100704.69
2022-08-28T05:20:37.145Z,100699.41
2022-08-28T05:23:04.539Z,100710.47
2022-08-28T05:25:34.164Z,100703.91
2022-08-28T05:28:00.593Z,100716.88
2022-08-28T05:30:27.181Z,100716.22
2022-08-28T05:32:53.968Z,100720.44
2022-08-28T05:35:20.488Z,100721.72
2022-08-28T05:37:46.999Z,100722.06
2022-08-28T05:40:13.764Z,100724.78
2022-08-28T05:42:40.328Z,100731.03
2022-08-28T05:45:07.160Z,100738.88
2022-08-28T05:47:33.713Z,100734.22
2022-08-28T05:50:00.195Z,100732.59
2022-08-28T05:52:28.686Z,100740.47
2022-08-28T05:54:55.751Z,100736.78
2022-08-28T05:57:22.205Z,100732.75
2022-08-28T05:59:49.690Z,100726.84
2022-08-28T06:02:16.538Z,100730.16
2022-08-28T06:04:43.022Z,100729.38
2022-08-28T06:07:12.079Z,100735.16
2022-08-28T06:09:38.599Z,100736.41
2022-08-28T06:12:05.486Z,100742.00
2022-08-28T06:14:33.083Z,100738.75
2022-08-28T06:17:01.364Z,100739.53
2022-08-28T06:19:29.012Z,100744.06
2022-08-28T06:21:57.153Z,100732.84
2022-08-28T06:24:24.214Z,100732.03
2022-08-28T06:26:52.003Z,100738.13
2022-08-28T06:29:21.142Z,100740.47
2022-08-28T06:31:53.085Z,100739.59
2022-08-28T06:34:19.807Z,100737.91
2022-08-28T06:36:48.582Z,100746.34
2022-08-28T06:39:18.347Z,100742.50
2022-08-28T06:41:44.858Z,100748.53
2022-08-28T06:44:13.400Z,100748.53
2022-08-28T06:46:40.462Z,100750.41
2022-08-28T06:49:08.355Z,100757.47
2022-08-28T06:51:35.571Z,100762.47
2022-08-28T06:54:02.554Z,100759.91
2022-08-28T06:56:29.768Z,100756.78
2022-08-28T06:58:57.547Z,100765.75
2022-08-28T07:01:25.665Z,100756.31
2022-08-28T07:03:53.928Z,100762.09
2022-08-28T07:06:21.725Z,100763.31
2022-08-28T07:08:48.884Z,100770.25
2022-08-28T07:11:19.051Z,100766.53
2022-08-28T07:13:45.998Z,100763.06
2022-08-28T07:16:13.530Z,100768.22
2022-08-28T07:18:40.181Z,100764.00
2022-08-28T07:21:11.632Z,100768.41
2022-08-28T07:23:39.173Z,100771.06
2022-08-28T07:26:07.245Z,100774.47
2022-08-28T07:28:34.303Z,100772.19
2022-08-28T07:31:02.733Z,100775.94
2022-08-28T07:33:29.512Z,100769.91
2022-08-28T07:35:56.915Z,100786.69
2022-08-28T07:38:25.298Z,100787.63
2022-08-28T07:40:52.022Z,100785.50
2022-08-28T07:43:37.259Z,100783.44
2022-08-28T07:46:07.077Z,100792.38
2022-08-28T07:48:35.351Z,100792.59
2022-08-28T07:51:05.692Z,100795.69
2022-08-28T07:53:36.368Z,100798.03
2022-08-28T07:56:03.640Z,100801.75
2022-08-28T07:58:30.116Z,100803.19
2022-08-28T08:00:57.716Z,100806.88
2022-08-28T08:03:25.625Z,100804.03
2022-08-28T08:05:53.674Z,100800.38
2022-08-28T08:08:20.215Z,100806.03
2022-08-28T08:10:56.034Z,100803.66
2022-08-28T08:13:22.903Z,100804.47
2022-08-28T08:15:49.439Z,100808.25
2022-08-28T08:18:17.240Z,100800.88
2022-08-28T08:20:47.735Z,100808.63
2022-08-28T08:23:15.438Z,100806.47
2022-08-28T08:25:41.902Z,100799.44
2022-08-28T08:28:08.663Z,100801.63
2022-08-28T08:30:36.361Z,100811.38
2022-08-28T08:33:03.005Z,100805.25
2022-08-28T08:35:29.569Z,100808.16
2022-08-28T08:37:58.689Z,100800.97
2022-08-28T08:40:27.268Z,100806.69
2022-08-28T08:42:57.017Z,100801.31
2022-08-28T08:45:26.612Z,100806.56
2022-08-28T08:47:55.817Z,100795.38
2022-08-28T08:50:27.060Z,100800.28
2022-08-28T08:52:59.702Z,100795.84
2022-08-28T08:55:28.762Z,100792.41
2022-08-28T08:58:11.322Z,100799.34
2022-08-28T09:00:53.652Z,100794.25
2022-08-28T09:03:25.778Z,100790.47
2022-08-28T09:05:58.141Z,100791.16
2022-08-28T09:08:31.115Z,100796.19
2022-08-28T09:11:02.995Z,100802.25
2022-08-28T09:13:38.500Z,100797.44
2022-08-28T09:16:10.985Z,100797.47
2022-08-28T09:18:38.363Z,100807.19
2022-08-28T09:21:05.580Z,100795.75
2022-08-28T09:23:32.190Z,100804.25
2022-08-28T09:26:02.381Z,100805.06
2022-08-28T09:28:32.039Z,100808.81
2022-08-28T09:30:58.720Z,100808.72
2022-08-28T09:33:34.612Z,100805.91
2022-08-28T09:36:20.265Z,100817.63
2022-08-28T09:38:46.887Z,100808.69
2022-08-28T09:41:32.139Z,100807.09
2022-08-28T09:43:58.770Z,100803.28
2022-08-28T09:46:29.523Z,100803.66
2022-08-28T09:49:10.213Z,100794.94
2022-08-28T09:51:38.762Z,100796.50
2022-08-28T09:54:08.970Z,100782.25
2022-08-28T09:56:36.373Z,100771.41
2022-08-28T09:59:06.798Z,100774.47
2022-08-28T10:01:46.642Z,100773.66
2022-08-28T10:04:19.537Z,100774.34
2022-08-28T10:06:54.918Z,100780.19
2022-08-28T10:09:40.168Z,100780.44
2022-08-28T10:12:14.121Z,100771.22
2022-08-28T10:14:52.939Z,100776.53
2022-08-28T10:17:25.559Z,100764.00
2022-08-28T10:19:57.691Z,100771.88
2022-08-28T10:22:24.168Z,100767.06
2022-08-28T10:24:53.700Z,100768.50
2022-08-28T10:27:22.944Z,100768.69
2022-08-28T10:29:49.862Z,100767.03
2022-08-28T10:32:35.286Z,100757.09
2022-08-28T10:35:11.933Z,100757.75
2022-08-28T10:37:45.506Z,100759.44
2022-08-28T10:40:24.382Z,100756.13
2022-08-28T10:42:55.874Z,100760.63
2022-08-28T10:45:23.833Z,100755.09
2022-08-28T10:47:59.636Z,100753.78
2022-08-28T10:50:28.778Z,100755.63
2022-08-28T10:53:02.729Z,100750.41
2022-08-28T10:55:48.021Z,100749.91
2022-08-28T10:58:24.478Z,100745.75
2022-08-28T11:00:56.624Z,100736.03
2022-08-28T11:03:34.294Z,100743.44
2022-08-28T11:06:08.327Z,100742.59
2022-08-28T11:08:36.942Z,100737.22
2022-08-28T11:11:05.407Z,100736.09
2022-08-28T11:13:51.164Z,100742.84
2022-08-28T11:16:20.649Z,100730.94
2022-08-28T11:18:59.644Z,100742.53
2022-08-28T11:21:26.383Z,100726.97
2022-08-28T11:24:24.100Z,100731.34
2022-08-28T11:26:58.207Z,100736.25
2022-08-28T11:29:43.407Z,100733.00
2022-08-28T11:32:28.834Z,100724.06
2022-08-28T11:34:55.761Z,100732.13
2022-08-28T11:37:42.087Z,100721.22
2022-08-28T11:40:19.429Z,100718.44
2022-08-28T11:42:48.821Z,100725.34
2022-08-28T11:45:19.959Z,100719.50
2022-08-28T11:47:52.892Z,100722.91
2022-08-28T11:50:27.999Z,100725.00
2022-08-28T11:53:10.027Z,100717.97
2022-08-28T11:55:49.130Z,100723.94
2022-08-28T11:58:19.212Z,100722.13
2022-08-28T12:00:51.802Z,100721.81
2022-08-28T12:03:28.612Z,100717.41
2022-08-28T12:05:56.856Z,100711.97
2022-08-28T12:08:42.279Z,100726.13
2022-08-28T12:11:08.956Z,100712.66
2022-08-28T12:13:44.999Z,100717.22
2022-08-28T12:16:12.249Z,100720.69
2022-08-28T12:18:43.032Z,100710.13
2022-08-28T12:21:22.973Z,100716.31
2022-08-28T12:24:04.121Z,100703.91
2022-08-28T12:26:37.250Z,100714.09
2022-08-28T12:29:16.409Z,100709.09
2022-08-28T12:32:11.409Z,100711.50
2022-08-28T12:34:46.287Z,100707.63
2022-08-28T12:37:25.041Z,100708.00
2022-08-28T12:39:52.139Z,100710.75
2022-08-28T12:42:20.184Z,100703.91
2022-08-28T12:44:47.270Z,100712.91
2022-08-28T12:47:15.440Z,100700.31
2022-08-28T12:49:42.128Z,100702.78
2022-08-28T12:52:22.372Z,100710.44
2022-08-28T12:54:49.895Z,100703.94
2022-08-28T12:57:18.247Z,100704.25
2022-08-28T12:59:46.386Z,100717.78
2022-08-28T13:02:20.723Z,100709.97
2022-08-28T13:05:07.853Z,100705.91
2022-08-28T13:07:36.960Z,100695.63
2022-08-28T13:10:22.368Z,100703.22
2022-08-28T13:13:03.247Z,100696.38
2022-08-28T13:15:50.278Z,100693.13
2022-08-28T13:18:36.569Z,100698.69
2022-08-28T13:21:12.118Z,100698.19
2022-08-28T13:23:38.673Z,100698.19
2022-08-28T13:26:05.941Z,100695.50
2022-08-28T13:28:36.913Z,100684.19
2022-08-28T13:31:03.689Z,100676.88
2022-08-28T13:33:30.591Z,100670.53
2022-08-28T13:35:57.499Z,100681.22
2022-08-28T13:38:25.038Z,100673.72
2022-08-28T13:40:57.998Z,100683.22
2022-08-28T13:43:26.517Z,100675.28
2022-08-28T13:45:53.521Z,100677.59
2022-08-28T13:48:21.602Z,100672.84
2022-08-28T13:50:50.203Z,100669.22
2022-08-28T13:53:18.573Z,100676.97
2022-08-28T13:55:46.231Z,100679.63
2022-08-28T13:58:13.957Z,100676.00
2022-08-28T14:00:42.409Z,100679.28
2022-08-28T14:03:27.614Z,100667.59
2022-08-28T14:05:54.579Z,100685.16
2022-08-28T14:08:21.683Z,100675.72
2022-08-28T14:10:48.365Z,100683.69
2022-08-28T14:13:15.068Z,100675.81
2022-08-28T14:15:41.780Z,100671.88
2022-08-28T14:18:08.297Z,100671.03
2022-08-28T14:20:34.804Z,100668.66
2022-08-28T14:23:01.327Z,100672.22
2022-08-28T14:25:27.883Z,100676.59
2022-08-28T14:27:55.852Z,100669.84
2022-08-28T14:30:22.993Z,100673.81
2022-08-28T14:32:49.535Z,100680.56
2022-08-28T14:35:16.165Z,100670.28
2022-08-28T14:37:42.818Z,100663.16
2022-08-28T14:40:10.084Z,100672.63
2022-08-28T14:42:36.727Z,100664.28
2022-08-28T14:45:03.673Z,100667.03
2022-08-28T14:47:30.535Z,100667.03
2022-08-28T14:49:57.123Z,100669.38
2022-08-28T14:52:23.860Z,100671.63
2022-08-28T14:54:50.465Z,100664.47
2022-08-28T14:57:17.065Z,100660.47
2022-08-28T14:59:45.279Z,100658.56
2022-08-28T15:02:13.502Z,100659.44
2022-08-28T15:04:40.087Z,100647.97
2022-08-28T15:07:08.297Z,100650.38
2022-08-28T15:09:36.112Z,100640.50
2022-08-28T15:12:02.802Z,100646.41
2022-08-28T15:14:29.460Z,100651.09
2022-08-28T15:16:56.135Z,100649.28
2022-08-28T15:19:23.476Z,100647.56
2022-08-28T15:21:51.895Z,100647.56
2022-08-28T15:24:22.060Z,100651.47
2022-08-28T15:26:48.660Z,100640.69
2022-08-28T15:29:15.241Z,100645.84
2022-08-28T15:31:42.835Z,100649.81
2022-08-28T15:34:14.539Z,100647.41
2022-08-28T15:36:42.082Z,100647.34
2022-08-28T15:39:27.460Z,100655.47
2022-08-28T15:41:54.136Z,100654.06
2022-08-28T15:44:20.744Z,100651.72
2022-08-28T15:46:50.588Z,100637.19
2022-08-28T15:49:17.573Z,100649.38
2022-08-28T15:51:44.334Z,100644.69
2022-08-28T15:54:11.282Z,100645.38
2022-08-28T15:56:38.056Z,100640.28
2022-08-28T15:59:04.734Z,100650.16
2022-08-28T16:01:31.347Z,100651.38
2022-08-28T16:03:57.926Z,100641.41
2022-08-28T16:06:24.569Z,100637.16
2022-08-28T16:08:51.103Z,100646.41
2022-08-28T16:11:19.041Z,100650.56
2022-08-28T16:13:46.460Z,100642.16
2022-08-28T16:16:13.140Z,100652.31
2022-08-28T16:18:39.717Z,100648.63
2022-08-28T16:21:06.491Z,100654.50
2022-08-28T16:23:35.070Z,100656.06
2022-08-28T16:26:05.184Z,100656.03
2022-08-28T16:28:33.294Z,100655.94
2022-08-28T16:31:04.750Z,100656.19
2022-08-28T16:33:34.151Z,100650.16
2022-08-28T16:36:03.714Z,100655.19
2022-08-28T16:38:30.543Z,100650.81
2022-08-28T16:40:57.181Z,100654.75
2022-08-28T16:43:23.666Z,100658.56
2022-08-28T16:45:51.004Z,100654.47
2022-08-28T16:48:17.612Z,100657.63
2022-08-28T16:50:45.014Z,100648.94
2022-08-28T16:53:12.288Z,100652.00
2022-08-28T16:55:40.479Z,100642.81
2022-08-28T16:58:07.198Z,100650.16
2022-08-28T17:00:34.043Z,100648.47
2022-08-28T17:03:11.031Z,100650.63
2022-08-28T17:05:37.529Z,100651.25
2022-08-28T17:08:04.952Z,100650.28
2022-08-28T17:10:31.659Z,100652.06
2022-08-28T17:12:58.199Z,100650.81
2022-08-28T17:15:24.826Z,100652.38
2022-08-28T17:17:52.035Z,100650.72
2022-08-28T17:20:37.413Z,100656.09
2022-08-28T17:23:05.777Z,100645.03
2022-08-28T17:25:32.309Z,100648.78
2022-08-28T17:27:59.088Z,100646.34
2022-08-28T17:30:25.850Z,100654.53
2022-08-28T17:32:53.297Z,100660.31
2022-08-28T17:35:20.339Z,100664.94
2022-08-28T17:37:47.046Z,100664.94
2022-08-28T17:40:15.608Z,100660.09
2022-08-28T17:42:42.514Z,100659.25
2022-08-28T17:45:10.129Z,100669.81
2022-08-28T17:47:36.727Z,100672.00
2022-08-28T17:50:04.906Z,100677.78
2022-08-28T17:52:32.079Z,100678.81
2022-08-28T17:54:58.679Z,100678.63
2022-08-28T17:57:25.310Z,100682.81
2022-08-28T17:59:51.984Z,100678.81
2022-08-28T18:02:19.205Z,100681.06
2022-08-28T18:04:45.838Z,100684.75
2022-08-28T18:07:12.867Z,100689.72
2022-08-28T18:09:39.544Z,100692.00
2022-08-28T18:12:06.821Z,100688.38
2022-08-28T18:14:39.723Z,100690.59
2022-08-28T18:17:06.626Z,100687.34
2022-08-28T18:19:36.812Z,100684.88
2022-08-28T18:22:03.373Z,100697.38
2022-08-28T18:24:31.921Z,100696.59
2022-08-28T18:26:58.723Z,100704.72
2022-08-28T18:29:25.469Z,100704.16
2022-08-28T18:31:52.168Z,100705.56
2022-08-28T18:34:18.784Z,100704.72
2022-08-28T18:36:45.313Z,100710.91
2022-08-28T18:39:12.053Z,100717.13
2022-08-28T18:41:43.754Z,100717.00
2022-08-28T18:44:11.797Z,100719.66
2022-08-28T18:46:38.549Z,100723.91
2022-08-28T18:49:05.339Z,100727.00
2022-08-28T18:51:32.610Z,100726.13
2022-08-28T18:54:01.010Z,100731.44
2022-08-28T18:56:30.350Z,100736.72
2022-08-28T18:58:59.340Z,100733.34
2022-08-28T19:01:26.058Z,100742.19
2022-08-28T19:03:53.498Z,100752.56
2022-08-28T19:06:20.064Z,100748.59
2022-08-28T19:08:46.671Z,100749.66
2022-08-28T19:11:14.257Z,100746.00
2022-08-28T19:13:41.705Z,100762.22
2022-08-28T19:16:08.717Z,100762.75
2022-08-28T19:18:35.296Z,100769.63
2022-08-28T19:21:09.739Z,100769.16
2022-08-28T19:23:41.739Z,100774.19
2022-08-28T19:26:18.391Z,100777.16
2022-08-28T19:28:45.434Z,100775.13
2022-08-28T19:31:12.081Z,100775.34
2022-08-28T19:33:39.505Z,100783.81
2022-08-28T19:36:06.099Z,100775.81
2022-08-28T19:38:33.386Z,100783.09
2022-08-28T19:41:00.004Z,100775.56
2022-08-28T19:43:31.191Z,100788.03
2022-08-28T19:46:18.428Z,100787.91
2022-08-28T19:48:48.291Z,100788.16
2022-08-28T19:51:22.288Z,100796.59
2022-08-28T19:53:57.921Z,100794.09
2022-08-28T19:56:29.269Z,100799.44
2022-08-28T19:58:58.295Z,100810.63
2022-08-28T20:01:25.878Z,100806.59
2022-08-28T20:03:52.539Z,100806.59
2022-08-28T20:06:19.220Z,100807.31
2022-08-28T20:08:45.793Z,100805.94
2022-08-28T20:11:16.399Z,100804.56
2022-08-28T20:13:43.034Z,100806.81
2022-08-28T20:16:10.625Z,100803.16
2022-08-28T20:18:37.282Z,100804.31
2022-08-28T20:21:04.453Z,100803.41
2022-08-28T20:23:31.110Z,100808.75
2022-08-28T20:25:57.687Z,100814.06
2022-08-28T20:28:24.334Z,100818.59
2022-08-28T20:30:51.037Z,100816.56
2022-08-28T20:33:17.752Z,100816.75
2022-08-28T20:35:44.466Z,100818.25
2022-08-28T20:38:11.325Z,100814.25
2022-08-28T20:40:38.081Z,100810.59
2022-08-28T20:43:04.799Z,100826.53
2022-08-28T20:45:31.553Z,100819.03
2022-08-28T20:47:58.091Z,100822.41
2022-08-28T20:50:24.818Z,100824.69
2022-08-28T20:52:51.386Z,100822.16
2022-08-28T20:55:18.212Z,100828.97
2022-08-28T20:57:44.761Z,100835.31
2022-08-28T21:00:11.777Z,100833.91
2022-08-28T21:02:39.178Z,100833.63
2022-08-28T21:05:05.969Z,100834.31
2022-08-28T21:07:34.267Z,100843.50
2022-08-28T21:10:07.032Z,100833.22
2022-08-28T21:12:38.272Z,100845.63
2022-08-28T21:15:06.426Z,100843.88
2022-08-28T21:17:32.927Z,100842.78
2022-08-28T21:20:00.619Z,100848.16
2022-08-28T21:22:27.253Z,100850.41
2022-08-28T21:24:54.069Z,100856.66
2022-08-28T21:27:20.603Z,100857.00
2022-08-28T21:29:47.799Z,100852.31
2022-08-28T21:32:14.399Z,100858.94
2022-08-28T21:34:40.956Z,100850.91
2022-08-28T21:37:07.487Z,100856.09
2022-08-28T21:39:34.756Z,100851.97
2022-08-28T21:42:01.352Z,100862.72
2022-08-28T21:44:27.860Z,100859.41
2022-08-28T21:46:54.491Z,100868.56
2022-08-28T21:49:22.637Z,100869.56
2022-08-28T21:51:49.772Z,100877.94
2022-08-28T21:54:16.673Z,100873.28
2022-08-28T21:56:43.188Z,100871.19
2022-08-28T21:59:09.807Z,100874.44
2022-08-28T22:01:36.460Z,100869.31
2022-08-28T22:04:03.300Z,100873.16
2022-08-28T22:06:29.843Z,100879.28
2022-08-28T22:08:57.155Z,100878.13
2022-08-28T22:11:24.951Z,100879.44
2022-08-28T22:13:52.165Z,100883.94
2022-08-28T22:16:18.967Z,100881.22
2022-08-28T22:18:45.564Z,100882.19
2022-08-28T22:21:32.073Z,100883.97
2022-08-28T22:23:58.628Z,100889.94
2022-08-28T22:26:25.233Z,100893.63
2022-08-28T22:28:51.747Z,100891.53
2022-08-28T22:31:18.270Z,100886.38
2022-08-28T22:33:45.457Z,100894.13
2022-08-28T22:36:12.017Z,100893.00
2022-08-28T22:38:39.285Z,100888.50
2022-08-28T22:41:06.520Z,100896.53
2022-08-28T22:43:33.039Z,100893.63
2022-08-28T22:45:59.617Z,100893.16
2022-08-28T22:48:26.385Z,100898.91
2022-08-28T22:51:00.203Z,100902.59
2022-08-28T22:53:26.709Z,100903.72
2022-08-28T22:55:53.160Z,100908.38
2022-08-28T22:58:19.702Z,100911.91
2022-08-28T23:00:46.192Z,100910.94
2022-08-28T23:03:12.877Z,100904.53
2022-08-28T23:05:39.413Z,100903.56
2022-08-28T23:08:05.960Z,100908.03
2022-08-28T23:10:57.501Z,100910.28
2022-08-28T23:13:20.222Z,100903.69
2022-08-28T23:15:47.968Z,100914.28
2022-08-28T23:18:15.742Z,100907.69
2022-08-28T23:20:42.648Z,100909.13
2022-08-28T23:23:09.600Z,100909.78
2022-08-28T23:25:36.147Z,100904.75
2022-08-28T23:28:06.383Z,100909.25
2022-08-28T23:30:33.552Z,100908.28
2022-08-28T23:33:00.038Z,100905.69
2022-08-28T23:35:26.539Z,100909.84
2022-08-28T23:37:53.296Z,100907.31
2022-08-28T23:40:21.247Z,100899.63
2022-08-28T23:42:48.968Z,100902.47
2022-08-28T23:45:16.804Z,100910.28
2022-08-28T23:47:43.645Z,100904.97
2022-08-28T23:50:13.908Z,100904.97
2022-08-28T23:52:40.504Z,100900.16
2022-08-28T23:55:07.330Z,100905.75
2022-08-28T23:57:34.543Z,100905.25
